sensor_id;sensor_type;location;lat;lon;timestamp;temperature;humidity
26278;DHT22;14000;52.056;8.510;2022-12-29T00:01:35;11.20;99.90
26278;DHT22;14000;52.056;8.510;2022-12-29T00:04:01;10.80;99.90
26278;DHT22;14000;52.056;8.510;2022-12-29T00:06:27;10.90;99.90
26278;DHT22;14000;52.056;8.510;2022-12-29T00:08:52;11.00;99.90
26278;DHT22;14000;52.056;8.510;2022-12-29T00:11:21;10.30;99.90
26278;DHT22;14000;52.056;8.510;2022-12-29T00:13:47;10.70;99.90
26278;DHT22;14000;52.056;8.510;2022-12-29T00:16:33;10.30;99.90
26278;DHT22;14000;52.056;8.510;2022-12-29T00:18:59;10.40;99.90
26278;DHT22;14000;52.056;8.510;2022-12-29T00:21:25;10.40;99.90
26278;DHT22;14000;52.056;8.510;2022-12-29T00:24:16;10.90;99.90
26278;DHT22;14000;52.056;8.510;2022-12-29T00:29:49;10.30;99.90
26278;DHT22;14000;52.056;8.510;2022-12-29T00:32:34;10.40;99.90
26278;DHT22;14000;52.056;8.510;2022-12-29T00:35:35;10.40;99.90
26278;DHT22;14000;52.056;8.510;2022-12-29T00:38:05;10.70;99.90
26278;DHT22;14000;52.056;8.510;2022-12-29T00:40:51;10.30;99.90
26278;DHT22;14000;52.056;8.510;2022-12-29T00:43:35;10.90;99.90
26278;DHT22;14000;52.056;8.510;2022-12-29T00:46:19;10.70;99.90
26278;DHT22;14000;52.056;8.510;2022-12-29T00:48:45;11.10;99.90
26278;DHT22;14000;52.056;8.510;2022-12-29T00:51:30;10.40;99.90
26278;DHT22;14000;52.056;8.510;2022-12-29T00:53:55;10.40;99.90
26278;DHT22;14000;52.056;8.510;2022-12-29T00:56:21;11.00;99.90
26278;DHT22;14000;52.056;8.510;2022-12-29T00:58:46;10.40;99.90
26278;DHT22;14000;52.056;8.510;2022-12-29T01:01:12;10.40;99.90
26278;DHT22;14000;52.056;8.510;2022-12-29T01:03:38;10.40;99.90
26278;DHT22;14000;52.056;8.510;2022-12-29T01:06:06;10.50;99.90
26278;DHT22;14000;52.056;8.510;2022-12-29T01:08:33;10.40;99.90
26278;DHT22;14000;52.056;8.510;2022-12-29T01:11:00;10.40;99.90
26278;DHT22;14000;52.056;8.510;2022-12-29T01:13:26;10.50;99.90
26278;DHT22;14000;52.056;8.510;2022-12-29T01:15:52;10.40;99.90
26278;DHT22;14000;52.056;8.510;2022-12-29T01:18:18;10.40;99.90
26278;DHT22;14000;52.056;8.510;2022-12-29T01:20:44;10.40;99.90
26278;DHT22;14000;52.056;8.510;2022-12-29T01:23:09;10.40;99.90
26278;DHT22;14000;52.056;8.510;2022-12-29T01:25:35;10.40;99.90
26278;DHT22;14000;52.056;8.510;2022-12-29T01:28:01;10.50;99.90
26278;DHT22;14000;52.056;8.510;2022-12-29T01:30:26;10.50;99.90
26278;DHT22;14000;52.056;8.510;2022-12-29T01:32:52;10.40;99.90
26278;DHT22;14000;52.056;8.510;2022-12-29T01:35:17;10.40;99.90
26278;DHT22;14000;52.056;8.510;2022-12-29T01:37:43;10.40;99.90
26278;DHT22;14000;52.056;8.510;2022-12-29T01:40:09;10.30;99.90
26278;DHT22;14000;52.056;8.510;2022-12-29T01:42:35;10.30;99.90
26278;DHT22;14000;52.056;8.510;2022-12-29T01:45:11;10.20;99.90
26278;DHT22;14000;52.056;8.510;2022-12-29T01:47:47;10.20;99.90
26278;DHT22;14000;52.056;8.510;2022-12-29T01:50:27;10.20;99.90
26278;DHT22;14000;52.056;8.510;2022-12-29T01:53:24;10.30;99.90
26278;DHT22;14000;52.056;8.510;2022-12-29T01:55:59;10.30;99.90
26278;DHT22;14000;52.056;8.510;2022-12-29T01:58:32;10.40;99.90
26278;DHT22;14000;52.056;8.510;2022-12-29T02:00:59;10.40;99.90
26278;DHT22;14000;52.056;8.510;2022-12-29T02:03:25;10.40;99.90
26278;DHT22;14000;52.056;8.510;2022-12-29T02:06:02;10.50;99.90
26278;DHT22;14000;52.056;8.510;2022-12-29T02:08:30;10.50;99.90
26278;DHT22;14000;52.056;8.510;2022-12-29T02:10:56;10.50;99.90
26278;DHT22;14000;52.056;8.510;2022-12-29T02:13:24;10.50;99.90
26278;DHT22;14000;52.056;8.510;2022-12-29T02:19:18;10.20;99.90
26278;DHT22;14000;52.056;8.510;2022-12-29T02:38:14;10.00;99.90
26278;DHT22;14000;52.056;8.510;2022-12-29T02:40:51;10.00;99.90
26278;DHT22;14000;52.056;8.510;2022-12-29T02:43:36;10.00;99.90
26278;DHT22;14000;52.056;8.510;2022-12-29T02:46:10;10.10;99.90
26278;DHT22;14000;52.056;8.510;2022-12-29T02:48:45;10.10;99.90
26278;DHT22;14000;52.056;8.510;2022-12-29T02:51:19;10.10;99.90
26278;DHT22;14000;52.056;8.510;2022-12-29T02:53:45;10.30;99.90
26278;DHT22;14000;52.056;8.510;2022-12-29T02:56:30;10.10;99.90
26278;DHT22;14000;52.056;8.510;2022-12-29T02:58:55;10.20;99.90
26278;DHT22;14000;52.056;8.510;2022-12-29T03:06:56;10.30;99.90
26278;DHT22;14000;52.056;8.510;2022-12-29T03:09:50;10.40;99.90
26278;DHT22;14000;52.056;8.510;2022-12-29T03:15:03;10.50;99.90
26278;DHT22;14000;52.056;8.510;2022-12-29T03:20:25;10.60;99.90
26278;DHT22;14000;52.056;8.510;2022-12-29T03:22:56;10.60;99.90
26278;DHT22;14000;52.056;8.510;2022-12-29T03:25:29;10.60;99.90
26278;DHT22;14000;52.056;8.510;2022-12-29T03:27:58;10.80;99.90
26278;DHT22;14000;52.056;8.510;2022-12-29T03:30:27;10.80;99.90
26278;DHT22;14000;52.056;8.510;2022-12-29T03:33:00;10.90;99.90
26278;DHT22;14000;52.056;8.510;2022-12-29T03:35:30;10.90;99.90
26278;DHT22;14000;52.056;8.510;2022-12-29T03:38:23;11.00;99.90
26278;DHT22;14000;52.056;8.510;2022-12-29T03:40:52;11.00;99.90
26278;DHT22;14000;52.056;8.510;2022-12-29T03:43:21;11.00;99.90
26278;DHT22;14000;52.056;8.510;2022-12-29T03:45:47;11.00;99.90
26278;DHT22;14000;52.056;8.510;2022-12-29T03:48:12;11.00;99.90
26278;DHT22;14000;52.056;8.510;2022-12-29T03:50:38;11.00;99.90
26278;DHT22;14000;52.056;8.510;2022-12-29T03:53:04;11.00;99.90
26278;DHT22;14000;52.056;8.510;2022-12-29T03:55:29;11.10;99.90
26278;DHT22;14000;52.056;8.510;2022-12-29T03:57:55;11.10;99.90
26278;DHT22;14000;52.056;8.510;2022-12-29T04:00:20;11.10;99.90
26278;DHT22;14000;52.056;8.510;2022-12-29T04:02:46;11.10;99.90
26278;DHT22;14000;52.056;8.510;2022-12-29T04:05:12;11.10;99.90
26278;DHT22;14000;52.056;8.510;2022-12-29T04:07:37;11.10;99.90
26278;DHT22;14000;52.056;8.510;2022-12-29T04:10:03;11.10;99.90
26278;DHT22;14000;52.056;8.510;2022-12-29T04:12:29;11.10;99.90
26278;DHT22;14000;52.056;8.510;2022-12-29T04:14:54;11.30;99.90
26278;DHT22;14000;52.056;8.510;2022-12-29T04:17:20;11.30;99.90
26278;DHT22;14000;52.056;8.510;2022-12-29T04:19:46;11.30;99.90
26278;DHT22;14000;52.056;8.510;2022-12-29T04:22:11;11.30;99.90
26278;DHT22;14000;52.056;8.510;2022-12-29T04:24:37;11.30;99.90
26278;DHT22;14000;52.056;8.510;2022-12-29T04:27:03;11.30;99.90
26278;DHT22;14000;52.056;8.510;2022-12-29T04:29:28;11.30;99.90
26278;DHT22;14000;52.056;8.510;2022-12-29T04:31:54;11.30;99.90
26278;DHT22;14000;52.056;8.510;2022-12-29T04:34:20;11.30;99.90
26278;DHT22;14000;52.056;8.510;2022-12-29T04:36:45;11.30;99.90
26278;DHT22;14000;52.056;8.510;2022-12-29T04:39:11;11.30;99.90
26278;DHT22;14000;52.056;8.510;2022-12-29T04:41:36;11.30;99.90
26278;DHT22;14000;52.056;8.510;2022-12-29T04:44:02;11.10;99.90
26278;DHT22;14000;52.056;8.510;2022-12-29T04:46:28;11.10;99.90
26278;DHT22;14000;52.056;8.510;2022-12-29T04:48:53;11.00;99.90
26278;DHT22;14000;52.056;8.510;2022-12-29T04:51:19;10.80;99.90
26278;DHT22;14000;52.056;8.510;2022-12-29T04:53:44;10.80;99.90
26278;DHT22;14000;52.056;8.510;2022-12-29T04:56:10;10.80;99.90
26278;DHT22;14000;52.056;8.510;2022-12-29T04:58:36;10.70;99.90
26278;DHT22;14000;52.056;8.510;2022-12-29T05:01:01;10.70;99.90
26278;DHT22;14000;52.056;8.510;2022-12-29T05:03:27;10.70;99.90
26278;DHT22;14000;52.056;8.510;2022-12-29T05:05:54;10.70;99.90
26278;DHT22;14000;52.056;8.510;2022-12-29T05:08:20;10.60;99.90
26278;DHT22;14000;52.056;8.510;2022-12-29T05:10:46;10.60;99.90
26278;DHT22;14000;52.056;8.510;2022-12-29T05:13:11;10.50;99.90
26278;DHT22;14000;52.056;8.510;2022-12-29T05:15:37;10.50;99.90
26278;DHT22;14000;52.056;8.510;2022-12-29T05:18:03;10.40;99.90
26278;DHT22;14000;52.056;8.510;2022-12-29T05:20:28;10.30;99.90
26278;DHT22;14000;52.056;8.510;2022-12-29T05:22:54;10.40;99.90
26278;DHT22;14000;52.056;8.510;2022-12-29T05:25:19;10.30;99.90
26278;DHT22;14000;52.056;8.510;2022-12-29T05:27:45;10.40;99.90
26278;DHT22;14000;52.056;8.510;2022-12-29T05:30:11;10.40;99.90
26278;DHT22;14000;52.056;8.510;2022-12-29T05:32:37;10.50;99.90
26278;DHT22;14000;52.056;8.510;2022-12-29T05:35:02;10.50;99.90
26278;DHT22;14000;52.056;8.510;2022-12-29T05:37:28;10.40;99.90
26278;DHT22;14000;52.056;8.510;2022-12-29T05:39:53;10.40;99.90
26278;DHT22;14000;52.056;8.510;2022-12-29T05:42:19;10.40;99.90
26278;DHT22;14000;52.056;8.510;2022-12-29T05:44:45;10.50;99.90
26278;DHT22;14000;52.056;8.510;2022-12-29T05:47:10;10.60;99.90
26278;DHT22;14000;52.056;8.510;2022-12-29T05:49:36;10.50;99.90
26278;DHT22;14000;52.056;8.510;2022-12-29T05:52:01;10.60;99.90
26278;DHT22;14000;52.056;8.510;2022-12-29T05:54:27;10.60;99.90
26278;DHT22;14000;52.056;8.510;2022-12-29T05:56:52;10.60;99.90
26278;DHT22;14000;52.056;8.510;2022-12-29T05:59:18;10.70;99.90
26278;DHT22;14000;52.056;8.510;2022-12-29T06:01:43;10.70;99.90
26278;DHT22;14000;52.056;8.510;2022-12-29T06:04:09;10.80;99.90
26278;DHT22;14000;52.056;8.510;2022-12-29T06:06:35;10.80;99.90
26278;DHT22;14000;52.056;8.510;2022-12-29T06:09:00;10.80;99.90
26278;DHT22;14000;52.056;8.510;2022-12-29T06:11:26;10.80;99.90
26278;DHT22;14000;52.056;8.510;2022-12-29T06:13:51;10.80;99.90
26278;DHT22;14000;52.056;8.510;2022-12-29T06:16:17;10.90;99.90
26278;DHT22;14000;52.056;8.510;2022-12-29T06:18:42;10.90;99.90
26278;DHT22;14000;52.056;8.510;2022-12-29T06:21:08;10.90;99.90
26278;DHT22;14000;52.056;8.510;2022-12-29T06:23:33;10.70;99.90
26278;DHT22;14000;52.056;8.510;2022-12-29T06:25:59;10.10;99.90
26278;DHT22;14000;52.056;8.510;2022-12-29T06:28:25;9.50;99.90
26278;DHT22;14000;52.056;8.510;2022-12-29T06:30:50;9.30;99.90
26278;DHT22;14000;52.056;8.510;2022-12-29T06:33:16;9.20;99.90
26278;DHT22;14000;52.056;8.510;2022-12-29T06:35:42;9.10;99.90
26278;DHT22;14000;52.056;8.510;2022-12-29T06:38:08;9.10;99.90
26278;DHT22;14000;52.056;8.510;2022-12-29T06:40:34;9.00;99.90
26278;DHT22;14000;52.056;8.510;2022-12-29T06:42:59;9.00;99.90
26278;DHT22;14000;52.056;8.510;2022-12-29T06:45:25;9.00;99.90
26278;DHT22;14000;52.056;8.510;2022-12-29T06:47:51;8.90;99.90
26278;DHT22;14000;52.056;8.510;2022-12-29T06:50:16;8.90;99.90
26278;DHT22;14000;52.056;8.510;2022-12-29T06:52:42;8.90;99.90
26278;DHT22;14000;52.056;8.510;2022-12-29T06:55:08;8.90;99.90
26278;DHT22;14000;52.056;8.510;2022-12-29T06:57:34;8.90;99.90
26278;DHT22;14000;52.056;8.510;2022-12-29T06:59:59;8.90;99.90
26278;DHT22;14000;52.056;8.510;2022-12-29T07:02:25;9.00;99.90
26278;DHT22;14000;52.056;8.510;2022-12-29T07:04:51;9.00;99.90
26278;DHT22;14000;52.056;8.510;2022-12-29T07:07:18;9.00;99.90
26278;DHT22;14000;52.056;8.510;2022-12-29T07:09:45;9.00;99.90
26278;DHT22;14000;52.056;8.510;2022-12-29T07:12:10;9.10;99.90
26278;DHT22;14000;52.056;8.510;2022-12-29T07:14:36;9.10;99.90
26278;DHT22;14000;52.056;8.510;2022-12-29T07:17:02;9.10;99.90
26278;DHT22;14000;52.056;8.510;2022-12-29T07:19:30;9.10;99.90
26278;DHT22;14000;52.056;8.510;2022-12-29T07:21:56;9.10;99.90
26278;DHT22;14000;52.056;8.510;2022-12-29T07:24:22;9.10;99.90
26278;DHT22;14000;52.056;8.510;2022-12-29T07:26:47;9.20;99.90
26278;DHT22;14000;52.056;8.510;2022-12-29T07:29:13;9.30;99.90
26278;DHT22;14000;52.056;8.510;2022-12-29T07:31:38;9.30;99.90
26278;DHT22;14000;52.056;8.510;2022-12-29T07:34:04;9.40;99.90
26278;DHT22;14000;52.056;8.510;2022-12-29T07:36:29;9.40;99.90
26278;DHT22;14000;52.056;8.510;2022-12-29T07:38:55;9.50;99.90
26278;DHT22;14000;52.056;8.510;2022-12-29T07:41:21;9.40;99.90
26278;DHT22;14000;52.056;8.510;2022-12-29T07:43:47;9.40;99.90
26278;DHT22;14000;52.056;8.510;2022-12-29T07:46:14;9.50;99.90
26278;DHT22;14000;52.056;8.510;2022-12-29T07:48:39;9.50;99.90
26278;DHT22;14000;52.056;8.510;2022-12-29T07:51:05;9.50;99.90
26278;DHT22;14000;52.056;8.510;2022-12-29T07:53:31;9.50;99.90
26278;DHT22;14000;52.056;8.510;2022-12-29T07:55:57;9.50;99.90
26278;DHT22;14000;52.056;8.510;2022-12-29T07:58:23;9.60;99.90
26278;DHT22;14000;52.056;8.510;2022-12-29T08:00:55;9.60;99.90
26278;DHT22;14000;52.056;8.510;2022-12-29T08:03:21;9.70;99.90
26278;DHT22;14000;52.056;8.510;2022-12-29T08:05:47;9.70;99.90
26278;DHT22;14000;52.056;8.510;2022-12-29T08:08:13;9.70;99.90
26278;DHT22;14000;52.056;8.510;2022-12-29T08:10:39;9.70;99.90
26278;DHT22;14000;52.056;8.510;2022-12-29T08:13:04;9.70;99.90
26278;DHT22;14000;52.056;8.510;2022-12-29T08:15:30;9.80;99.90
26278;DHT22;14000;52.056;8.510;2022-12-29T08:17:55;9.80;99.90
26278;DHT22;14000;52.056;8.510;2022-12-29T08:20:21;9.90;99.90
26278;DHT22;14000;52.056;8.510;2022-12-29T08:22:47;10.00;99.90
26278;DHT22;14000;52.056;8.510;2022-12-29T08:25:12;10.00;99.90
26278;DHT22;14000;52.056;8.510;2022-12-29T08:27:38;9.90;99.90
26278;DHT22;14000;52.056;8.510;2022-12-29T08:30:04;9.90;99.90
26278;DHT22;14000;52.056;8.510;2022-12-29T08:32:29;9.90;99.90
26278;DHT22;14000;52.056;8.510;2022-12-29T08:34:55;9.90;99.90
26278;DHT22;14000;52.056;8.510;2022-12-29T08:37:21;9.90;99.90
26278;DHT22;14000;52.056;8.510;2022-12-29T08:39:47;10.00;99.90
26278;DHT22;14000;52.056;8.510;2022-12-29T08:42:13;10.00;99.90
26278;DHT22;14000;52.056;8.510;2022-12-29T08:44:38;10.10;99.90
26278;DHT22;14000;52.056;8.510;2022-12-29T08:47:04;10.00;99.90
26278;DHT22;14000;52.056;8.510;2022-12-29T08:49:30;10.00;99.90
26278;DHT22;14000;52.056;8.510;2022-12-29T08:51:56;10.20;99.90
26278;DHT22;14000;52.056;8.510;2022-12-29T08:54:21;10.20;99.90
26278;DHT22;14000;52.056;8.510;2022-12-29T08:56:47;10.20;99.90
26278;DHT22;14000;52.056;8.510;2022-12-29T08:59:12;10.10;99.90
26278;DHT22;14000;52.056;8.510;2022-12-29T09:01:38;10.10;99.90
26278;DHT22;14000;52.056;8.510;2022-12-29T09:04:06;10.10;99.90
26278;DHT22;14000;52.056;8.510;2022-12-29T09:06:31;10.10;99.90
26278;DHT22;14000;52.056;8.510;2022-12-29T09:08:57;10.10;99.90
26278;DHT22;14000;52.056;8.510;2022-12-29T09:11:24;10.20;99.90
26278;DHT22;14000;52.056;8.510;2022-12-29T09:13:51;10.20;99.90
26278;DHT22;14000;52.056;8.510;2022-12-29T09:16:17;10.20;99.90
26278;DHT22;14000;52.056;8.510;2022-12-29T09:18:44;10.10;99.90
26278;DHT22;14000;52.056;8.510;2022-12-29T09:21:10;10.10;99.90
26278;DHT22;14000;52.056;8.510;2022-12-29T09:23:36;10.10;99.90
26278;DHT22;14000;52.056;8.510;2022-12-29T09:26:03;10.10;99.90
26278;DHT22;14000;52.056;8.510;2022-12-29T09:28:30;9.50;99.90
26278;DHT22;14000;52.056;8.510;2022-12-29T09:30:56;10.50;99.90
26278;DHT22;14000;52.056;8.510;2022-12-29T09:33:22;10.40;99.90
26278;DHT22;14000;52.056;8.510;2022-12-29T09:35:53;10.30;99.90
26278;DHT22;14000;52.056;8.510;2022-12-29T09:38:20;10.30;99.90
26278;DHT22;14000;52.056;8.510;2022-12-29T09:40:50;10.40;99.90
26278;DHT22;14000;52.056;8.510;2022-12-29T09:48:43;10.50;99.90
26278;DHT22;14000;52.056;8.510;2022-12-29T09:51:13;10.50;99.90
26278;DHT22;14000;52.056;8.510;2022-12-29T09:53:46;10.60;99.90
26278;DHT22;14000;52.056;8.510;2022-12-29T09:56:19;10.60;99.90
26278;DHT22;14000;52.056;8.510;2022-12-29T09:58:54;10.60;99.90
26278;DHT22;14000;52.056;8.510;2022-12-29T10:03:56;10.70;99.90
26278;DHT22;14000;52.056;8.510;2022-12-29T10:09:38;10.70;99.90
26278;DHT22;14000;52.056;8.510;2022-12-29T10:20:27;10.70;99.90
26278;DHT22;14000;52.056;8.510;2022-12-29T10:23:03;10.60;99.90
26278;DHT22;14000;52.056;8.510;2022-12-29T10:25:35;10.60;99.90
26278;DHT22;14000;52.056;8.510;2022-12-29T10:30:51;10.70;99.90
26278;DHT22;14000;52.056;8.510;2022-12-29T10:33:22;10.70;99.90
26278;DHT22;14000;52.056;8.510;2022-12-29T10:35:51;10.90;99.90
26278;DHT22;14000;52.056;8.510;2022-12-29T10:38:29;10.90;99.90
26278;DHT22;14000;52.056;8.510;2022-12-29T10:41:05;10.90;99.90
26278;DHT22;14000;52.056;8.510;2022-12-29T10:43:44;10.90;99.90
26278;DHT22;14000;52.056;8.510;2022-12-29T10:46:14;10.90;99.90
26278;DHT22;14000;52.056;8.510;2022-12-29T10:48:41;11.10;99.90
26278;DHT22;14000;52.056;8.510;2022-12-29T10:51:11;10.90;99.90
26278;DHT22;14000;52.056;8.510;2022-12-29T10:53:43;11.30;99.90
26278;DHT22;14000;52.056;8.510;2022-12-29T10:59:10;11.00;99.90
26278;DHT22;14000;52.056;8.510;2022-12-29T11:01:46;11.00;99.90
26278;DHT22;14000;52.056;8.510;2022-12-29T11:06:51;11.00;99.90
26278;DHT22;14000;52.056;8.510;2022-12-29T11:09:28;10.90;99.90
26278;DHT22;14000;52.056;8.510;2022-12-29T11:11:53;10.90;99.90
26278;DHT22;14000;52.056;8.510;2022-12-29T11:14:26;10.90;99.90
26278;DHT22;14000;52.056;8.510;2022-12-29T11:17:00;11.20;99.90
26278;DHT22;14000;52.056;8.510;2022-12-29T11:19:29;10.90;99.90
26278;DHT22;14000;52.056;8.510;2022-12-29T11:22:33;10.90;99.90
26278;DHT22;14000;52.056;8.510;2022-12-29T11:25:06;10.90;99.90
26278;DHT22;14000;52.056;8.510;2022-12-29T11:27:35;10.90;99.90
26278;DHT22;14000;52.056;8.510;2022-12-29T11:30:01;10.90;99.90
26278;DHT22;14000;52.056;8.510;2022-12-29T11:32:29;10.80;99.90
26278;DHT22;14000;52.056;8.510;2022-12-29T11:34:56;10.80;99.90
26278;DHT22;14000;52.056;8.510;2022-12-29T11:37:39;10.80;99.90
26278;DHT22;14000;52.056;8.510;2022-12-29T11:40:10;10.80;99.90
26278;DHT22;14000;52.056;8.510;2022-12-29T11:42:56;10.80;99.90
26278;DHT22;14000;52.056;8.510;2022-12-29T11:45:27;10.90;99.90
26278;DHT22;14000;52.056;8.510;2022-12-29T11:48:18;10.90;99.90
26278;DHT22;14000;52.056;8.510;2022-12-29T11:50:57;10.90;99.90
26278;DHT22;14000;52.056;8.510;2022-12-29T11:56:06;10.80;99.90
26278;DHT22;14000;52.056;8.510;2022-12-29T11:58:35;10.90;99.90
26278;DHT22;14000;52.056;8.510;2022-12-29T12:01:06;10.80;99.90
26278;DHT22;14000;52.056;8.510;2022-12-29T12:03:36;10.90;99.90
26278;DHT22;14000;52.056;8.510;2022-12-29T12:06:03;10.90;99.90
26278;DHT22;14000;52.056;8.510;2022-12-29T12:09:02;10.90;99.90
26278;DHT22;14000;52.056;8.510;2022-12-29T12:11:39;10.90;99.90
26278;DHT22;14000;52.056;8.510;2022-12-29T12:17:32;10.80;99.90
26278;DHT22;14000;52.056;8.510;2022-12-29T12:20:38;10.90;99.90
26278;DHT22;14000;52.056;8.510;2022-12-29T12:23:15;10.90;99.90
26278;DHT22;14000;52.056;8.510;2022-12-29T12:26:02;10.90;99.90
26278;DHT22;14000;52.056;8.510;2022-12-29T12:31:39;10.90;99.90
26278;DHT22;14000;52.056;8.510;2022-12-29T12:34:08;10.90;99.90
26278;DHT22;14000;52.056;8.510;2022-12-29T12:37:02;10.90;99.90
26278;DHT22;14000;52.056;8.510;2022-12-29T12:48:07;10.90;99.90
26278;DHT22;14000;52.056;8.510;2022-12-29T12:56:15;10.90;99.90
26278;DHT22;14000;52.056;8.510;2022-12-29T12:58:55;10.90;99.90
26278;DHT22;14000;52.056;8.510;2022-12-29T13:01:38;10.90;99.90
26278;DHT22;14000;52.056;8.510;2022-12-29T13:06:58;10.90;99.90
26278;DHT22;14000;52.056;8.510;2022-12-29T13:13:14;10.80;99.90
26278;DHT22;14000;52.056;8.510;2022-12-29T13:15:47;10.80;99.90
26278;DHT22;14000;52.056;8.510;2022-12-29T13:21:04;10.80;99.90
26278;DHT22;14000;52.056;8.510;2022-12-29T13:23:55;10.80;99.90
26278;DHT22;14000;52.056;8.510;2022-12-29T13:26:33;10.80;99.90
26278;DHT22;14000;52.056;8.510;2022-12-29T13:29:30;10.70;99.90
26278;DHT22;14000;52.056;8.510;2022-12-29T13:32:34;10.80;99.90
26278;DHT22;14000;52.056;8.510;2022-12-29T13:35:26;10.70;99.90
26278;DHT22;14000;52.056;8.510;2022-12-29T13:40:53;10.70;99.90
26278;DHT22;14000;52.056;8.510;2022-12-29T13:43:21;10.70;99.90
26278;DHT22;14000;52.056;8.510;2022-12-29T13:45:55;10.70;99.90
26278;DHT22;14000;52.056;8.510;2022-12-29T13:48:28;10.70;99.90
26278;DHT22;14000;52.056;8.510;2022-12-29T13:50:59;10.60;99.90
26278;DHT22;14000;52.056;8.510;2022-12-29T13:53:59;10.60;99.90
26278;DHT22;14000;52.056;8.510;2022-12-29T13:59:04;10.50;99.90
26278;DHT22;14000;52.056;8.510;2022-12-29T14:01:50;10.50;99.90
26278;DHT22;14000;52.056;8.510;2022-12-29T14:04:24;10.40;99.90
26278;DHT22;14000;52.056;8.510;2022-12-29T14:07:14;10.40;99.90
26278;DHT22;14000;52.056;8.510;2022-12-29T14:09:47;10.40;99.90
26278;DHT22;14000;52.056;8.510;2022-12-29T14:15:15;10.40;99.90
26278;DHT22;14000;52.056;8.510;2022-12-29T14:18:10;10.40;99.90
26278;DHT22;14000;52.056;8.510;2022-12-29T14:20:37;10.40;99.90
26278;DHT22;14000;52.056;8.510;2022-12-29T14:25:57;10.40;99.90
26278;DHT22;14000;52.056;8.510;2022-12-29T14:28:28;10.40;99.90
26278;DHT22;14000;52.056;8.510;2022-12-29T14:31:05;10.40;99.90
26278;DHT22;14000;52.056;8.510;2022-12-29T14:39:35;10.30;99.90
26278;DHT22;14000;52.056;8.510;2022-12-29T14:42:10;10.20;99.90
26278;DHT22;14000;52.056;8.510;2022-12-29T14:47:43;10.20;99.90
26278;DHT22;14000;52.056;8.510;2022-12-29T14:52:55;10.20;99.90
26278;DHT22;14000;52.056;8.510;2022-12-29T14:55:47;10.20;99.90
26278;DHT22;14000;52.056;8.510;2022-12-29T14:58:18;10.10;99.90
26278;DHT22;14000;52.056;8.510;2022-12-29T15:00:44;10.20;99.90
26278;DHT22;14000;52.056;8.510;2022-12-29T15:03:21;10.20;99.90
26278;DHT22;14000;52.056;8.510;2022-12-29T15:06:07;10.20;99.90
26278;DHT22;14000;52.056;8.510;2022-12-29T15:08:49;10.20;99.90
26278;DHT22;14000;52.056;8.510;2022-12-29T15:11:18;10.20;99.90
26278;DHT22;14000;52.056;8.510;2022-12-29T15:13:45;10.20;99.90
26278;DHT22;14000;52.056;8.510;2022-12-29T15:16:31;10.20;99.90
26278;DHT22;14000;52.056;8.510;2022-12-29T15:18:58;10.20;99.90
26278;DHT22;14000;52.056;8.510;2022-12-29T15:21:30;10.30;99.90
26278;DHT22;14000;52.056;8.510;2022-12-29T15:23:56;10.30;99.90
26278;DHT22;14000;52.056;8.510;2022-12-29T15:26:22;10.30;99.90
26278;DHT22;14000;52.056;8.510;2022-12-29T15:28:52;10.30;99.90
26278;DHT22;14000;52.056;8.510;2022-12-29T15:31:22;10.30;99.90
26278;DHT22;14000;52.056;8.510;2022-12-29T15:33:53;10.30;99.90
26278;DHT22;14000;52.056;8.510;2022-12-29T15:36:27;10.20;99.90
26278;DHT22;14000;52.056;8.510;2022-12-29T15:38:53;10.20;99.90
26278;DHT22;14000;52.056;8.510;2022-12-29T15:44:31;10.20;99.90
26278;DHT22;14000;52.056;8.510;2022-12-29T15:47:01;10.30;99.90
26278;DHT22;14000;52.056;8.510;2022-12-29T15:49:27;10.30;99.90
26278;DHT22;14000;52.056;8.510;2022-12-29T15:51:52;10.30;99.90
26278;DHT22;14000;52.056;8.510;2022-12-29T15:54:20;10.30;99.90
26278;DHT22;14000;52.056;8.510;2022-12-29T15:56:47;10.30;99.90
26278;DHT22;14000;52.056;8.510;2022-12-29T15:59:25;10.20;99.90
26278;DHT22;14000;52.056;8.510;2022-12-29T16:01:51;10.20;99.90
26278;DHT22;14000;52.056;8.510;2022-12-29T16:04:17;10.20;99.90
26278;DHT22;14000;52.056;8.510;2022-12-29T16:07:05;10.20;99.90
26278;DHT22;14000;52.056;8.510;2022-12-29T16:09:33;10.20;99.90
26278;DHT22;14000;52.056;8.510;2022-12-29T16:12:03;10.20;99.90
26278;DHT22;14000;52.056;8.510;2022-12-29T16:14:40;10.20;99.90
26278;DHT22;14000;52.056;8.510;2022-12-29T16:17:12;10.20;99.90
26278;DHT22;14000;52.056;8.510;2022-12-29T16:19:42;10.20;99.90
26278;DHT22;14000;52.056;8.510;2022-12-29T16:22:32;10.10;99.90
26278;DHT22;14000;52.056;8.510;2022-12-29T16:25:03;10.10;99.90
26278;DHT22;14000;52.056;8.510;2022-12-29T16:27:37;10.10;99.90
26278;DHT22;14000;52.056;8.510;2022-12-29T16:30:49;10.10;99.90
26278;DHT22;14000;52.056;8.510;2022-12-29T16:36:32;10.10;99.90
26278;DHT22;14000;52.056;8.510;2022-12-29T16:39:19;10.10;99.90
26278;DHT22;14000;52.056;8.510;2022-12-29T16:41:47;10.10;99.90
26278;DHT22;14000;52.056;8.510;2022-12-29T16:44:23;10.10;99.90
26278;DHT22;14000;52.056;8.510;2022-12-29T16:49:41;10.10;99.90
26278;DHT22;14000;52.056;8.510;2022-12-29T16:52:17;10.00;99.90
26278;DHT22;14000;52.056;8.510;2022-12-29T16:54:50;9.90;99.90
26278;DHT22;14000;52.056;8.510;2022-12-29T16:57:22;9.80;99.90
26278;DHT22;14000;52.056;8.510;2022-12-29T16:59:51;9.70;99.90
26278;DHT22;14000;52.056;8.510;2022-12-29T17:02:20;9.70;99.90
26278;DHT22;14000;52.056;8.510;2022-12-29T17:04:47;9.70;99.90
26278;DHT22;14000;52.056;8.510;2022-12-29T17:07:19;9.70;99.90
26278;DHT22;14000;52.056;8.510;2022-12-29T17:09:45;9.70;99.90
26278;DHT22;14000;52.056;8.510;2022-12-29T17:12:15;9.70;99.90
26278;DHT22;14000;52.056;8.510;2022-12-29T17:14:45;9.70;99.90
26278;DHT22;14000;52.056;8.510;2022-12-29T17:17:19;9.60;99.90
26278;DHT22;14000;52.056;8.510;2022-12-29T17:19:49;9.20;99.90
26278;DHT22;14000;52.056;8.510;2022-12-29T17:22:19;8.80;99.90
26278;DHT22;14000;52.056;8.510;2022-12-29T17:24:44;8.40;99.90
26278;DHT22;14000;52.056;8.510;2022-12-29T17:27:29;8.10;99.90
26278;DHT22;14000;52.056;8.510;2022-12-29T17:30:11;8.00;99.90
26278;DHT22;14000;52.056;8.510;2022-12-29T17:32:37;7.90;99.90
26278;DHT22;14000;52.056;8.510;2022-12-29T17:35:04;7.80;99.90
26278;DHT22;14000;52.056;8.510;2022-12-29T17:37:37;7.80;99.90
26278;DHT22;14000;52.056;8.510;2022-12-29T17:40:05;7.80;99.90
26278;DHT22;14000;52.056;8.510;2022-12-29T17:42:31;7.70;99.90
26278;DHT22;14000;52.056;8.510;2022-12-29T17:44:59;7.80;99.90
26278;DHT22;14000;52.056;8.510;2022-12-29T17:47:25;7.80;99.90
26278;DHT22;14000;52.056;8.510;2022-12-29T17:49:50;7.80;99.90
26278;DHT22;14000;52.056;8.510;2022-12-29T17:52:16;7.80;99.90
26278;DHT22;14000;52.056;8.510;2022-12-29T17:54:47;7.80;99.90
26278;DHT22;14000;52.056;8.510;2022-12-29T17:57:15;7.90;99.90
26278;DHT22;14000;52.056;8.510;2022-12-29T17:59:41;8.00;99.90
26278;DHT22;14000;52.056;8.510;2022-12-29T18:02:29;8.00;99.90